Time;durP1;ratioP1;P1;durP2;ratioP2;P2;SDS_P1;SDS_P2;PMS_P1;PMS_P2;Temp;Humidity;BMP_temperature;BMP_pressure;BME280_temperature;BME280_humidity;BME280_pressure;Samples;Min_cycle;Max_cycle;Signal;HPM_P1;HPM_P2
2022/12/30 00:00:22;;;;;;;189.73;56.47;;;;;;;8.59;100.00;100922.25;4941136;29;20050;-84
2022/12/30 00:02:51;;;;;;;142.88;54.15;;;;;;;8.71;100.00;100931.75;4969960;29;20115;-85
2022/12/30 00:05:19;;;;;;;136.95;52.33;;;;;;;8.88;100.00;100932.00;4973429;29;20043;-88
2022/12/30 00:07:44;;;;;;;358.83;54.55;;;;;;;8.72;100.00;100928.09;4959725;29;20059;-84
2022/12/30 00:10:10;;;;;;;298.98;56.78;;;;;;;8.54;100.00;100924.50;4952874;29;20130;-86
2022/12/30 00:34:57;;;;;;;184.75;55.33;;;;;;;8.51;100.00;100935.34;4944534;29;20430;-84
2022/12/30 00:37:23;;;;;;;172.32;55.03;;;;;;;8.54;100.00;100935.06;4957766;29;20050;-81
2022/12/30 00:39:48;;;;;;;157.27;54.35;;;;;;;8.66;100.00;100931.31;4957141;29;20035;-81
2022/12/30 00:44:58;;;;;;;187.45;58.63;;;;;;;8.57;100.00;100940.06;4957234;29;20039;-81
2022/12/30 00:47:24;;;;;;;149.85;53.78;;;;;;;8.65;100.00;100926.97;4952362;29;20043;-82
2022/12/30 00:58:01;;;;;;;185.68;54.40;;;;;;;8.62;100.00;100916.69;4941323;29;20127;-84
2022/12/30 01:00:26;;;;;;;148.05;55.40;;;;;;;8.64;100.00;100913.94;4939107;29;20090;-81
2022/12/30 01:02:53;;;;;;;151.43;55.80;;;;;;;8.76;100.00;100921.56;4937956;29;20044;-82
2022/12/30 01:05:19;;;;;;;454.58;58.45;;;;;;;8.59;100.00;100922.25;4938564;29;20183;-81
2022/12/30 01:07:46;;;;;;;176.10;57.53;;;;;;;8.44;100.00;100918.38;4938244;29;20491;-83
2022/12/30 01:10:12;;;;;;;203.48;58.25;;;;;;;8.51;100.00;100916.84;4939275;29;20044;-83
2022/12/30 01:12:39;;;;;;;142.55;56.20;;;;;;;8.43;100.00;100906.13;4939327;29;20042;-81
2022/12/30 01:15:05;;;;;;;146.55;57.95;;;;;;;8.46;100.00;100905.88;4939360;29;20055;-82
2022/12/30 01:17:32;;;;;;;213.32;57.80;;;;;;;8.53;100.00;100901.69;4955337;28;20068;-83
2022/12/30 01:19:58;;;;;;;245.23;60.03;;;;;;;8.44;100.00;100897.25;4948315;29;20082;-82
2022/12/30 01:22:24;;;;;;;377.05;60.92;;;;;;;8.26;100.00;100888.31;4940941;29;20040;-81
2022/12/30 01:24:50;;;;;;;174.68;61.80;;;;;;;8.25;100.00;100889.31;4939318;29;20115;-82
2022/12/30 01:27:15;;;;;;;261.45;62.85;;;;;;;8.24;100.00;100877.91;4938901;29;20070;-83
2022/12/30 01:29:43;;;;;;;180.80;65.65;;;;;;;8.29;100.00;100898.63;4938749;29;20494;-82
2022/12/30 01:32:13;;;;;;;259.65;62.08;;;;;;;8.26;100.00;100885.66;4971617;28;20037;-82
2022/12/30 01:34:39;;;;;;;206.15;63.92;;;;;;;8.39;100.00;100873.06;4976283;28;20046;-81
2022/12/30 01:37:05;;;;;;;148.30;62.70;;;;;;;8.48;100.00;100861.66;4975676;28;20042;-80
2022/12/30 01:39:31;;;;;;;400.27;65.20;;;;;;;8.49;100.00;100865.97;4975786;28;20031;-82
2022/12/30 01:41:57;;;;;;;183.40;58.95;;;;;;;8.32;100.00;100860.56;4975727;28;20528;-83
2022/12/30 01:44:56;;;;;;;177.52;58.55;;;;;;;8.53;100.00;100870.00;4976466;28;20026;-81
2022/12/30 01:47:34;;;;;;;311.17;66.18;;;;;;;8.18;100.00;100873.19;4977279;28;20074;-82
2022/12/30 01:50:12;;;;;;;263.15;64.78;;;;;;;8.26;100.00;100872.47;4976995;28;20023;-81
2022/12/30 01:52:43;;;;;;;266.58;63.90;;;;;;;8.24;100.00;100869.16;4976686;28;20041;-82
2022/12/30 01:55:14;;;;;;;286.05;64.00;;;;;;;8.25;100.00;100881.38;4976376;28;20046;-82
2022/12/30 01:57:43;;;;;;;163.57;62.73;;;;;;;8.42;100.00;100874.59;4976280;28;20058;-81
2022/12/30 02:00:10;;;;;;;197.90;61.45;;;;;;;8.45;100.00;100866.41;4976218;28;20607;-80
2022/12/30 02:02:38;;;;;;;313.17;65.22;;;;;;;8.41;100.00;100851.81;4976328;28;20046;-82
2022/12/30 02:05:06;;;;;;;329.10;63.17;;;;;;;8.55;100.00;100861.94;4976141;28;20039;-81
2022/12/30 02:07:37;;;;;;;320.80;61.30;;;;;;;8.48;100.00;100860.84;4960104;28;20023;-82
2022/12/30 02:10:04;;;;;;;227.27;63.85;;;;;;;8.36;100.00;100878.63;4977716;28;20090;-83
2022/12/30 02:12:29;;;;;;;201.02;64.50;;;;;;;8.36;100.00;100877.78;4976721;28;20030;-82
2022/12/30 02:14:56;;;;;;;197.90;66.22;;;;;;;8.19;100.00;100871.34;4976923;28;20053;-82
2022/12/30 02:17:45;;;;;;;186.98;67.35;;;;;;;8.20;100.00;100875.66;4959726;28;20103;-82
2022/12/30 02:20:32;;;;;;;163.95;67.22;;;;;;;8.31;100.00;100854.44;4976768;28;20030;-81
2022/12/30 02:23:40;;;;;;;217.63;67.78;;;;;;;8.31;100.00;100849.16;4977274;28;20035;-81
2022/12/30 02:26:20;;;;;;;232.02;67.13;;;;;;;8.23;100.00;100856.91;4945738;28;20085;-83
2022/12/30 02:29:04;;;;;;;219.68;68.00;;;;;;;8.19;100.00;100856.34;4981349;28;20039;-82
2022/12/30 02:31:53;;;;;;;187.88;65.28;;;;;;;8.42;100.00;100862.19;4983970;28;20035;-82
2022/12/30 02:34:21;;;;;;;209.48;66.28;;;;;;;8.40;100.00;100853.59;4978256;28;20050;-85
2022/12/30 02:37:04;;;;;;;205.77;66.68;;;;;;;8.34;100.00;100859.44;4981395;28;20034;-82
2022/12/30 02:39:55;;;;;;;272.98;66.53;;;;;;;8.40;100.00;100843.03;4963205;28;20034;-83
2022/12/30 02:45:41;;;;;;;201.02;66.50;;;;;;;8.36;100.00;100872.50;4975741;28;20415;-82
2022/12/30 02:48:27;;;;;;;166.45;65.72;;;;;;;8.32;100.00;100858.72;4976350;28;20056;-81
2022/12/30 02:53:40;;;;;;;168.20;68.05;;;;;;;8.25;100.00;100863.69;4978952;28;20077;-82
2022/12/30 02:56:08;;;;;;;183.10;68.28;;;;;;;8.26;100.00;100873.31;4979419;28;20074;-80
2022/12/30 02:58:37;;;;;;;210.15;70.15;;;;;;;8.27;100.00;100879.41;4978763;28;20374;-81
2022/12/30 03:04:16;;;;;;;165.43;69.97;;;;;;;8.26;100.00;100878.59;4979295;28;20035;-81
2022/12/30 03:07:09;;;;;;;166.27;69.80;;;;;;;8.14;100.00;100870.94;4961201;28;20133;-83
2022/12/30 03:12:49;;;;;;;181.30;70.78;;;;;;;8.27;100.00;100876.78;4997989;28;20038;-83
2022/12/30 03:15:19;;;;;;;212.55;72.38;;;;;;;8.39;100.00;100882.78;4998084;28;20034;-80
2022/12/30 03:17:47;;;;;;;174.43;72.15;;;;;;;8.23;100.00;100878.03;4998466;28;20043;-83
2022/12/30 03:20:16;;;;;;;169.60;70.10;;;;;;;8.31;100.00;100880.84;4998426;28;20060;-82
2022/12/30 03:28:17;;;;;;;182.82;71.20;;;;;;;8.27;100.00;100882.06;4997356;28;20452;-83
2022/12/30 03:30:48;;;;;;;162.55;68.97;;;;;;;8.58;100.00;100873.06;4997563;28;20035;-82
2022/12/30 03:33:14;;;;;;;150.95;64.72;;;;;;;8.58;100.00;100867.78;4997239;28;20390;-82
2022/12/30 03:35:47;;;;;;;145.05;64.38;;;;;;;8.49;100.00;100857.19;4997302;28;20041;-83
2022/12/30 03:38:16;;;;;;;144.82;65.60;;;;;;;8.56;100.00;100859.16;4997445;28;20047;-82
2022/12/30 03:40:43;;;;;;;138.05;60.10;;;;;;;8.54;100.00;100853.19;4997176;28;20066;-82
2022/12/30 03:43:10;;;;;;;126.55;56.30;;;;;;;8.57;100.00;100854.69;4979983;28;20474;-81
2022/12/30 03:45:36;;;;;;;124.25;58.75;;;;;;;8.51;100.00;100844.69;4997308;28;20038;-82
2022/12/30 03:48:02;;;;;;;135.07;57.35;;;;;;;8.44;100.00;100838.31;4997360;28;20080;-81
2022/12/30 03:50:27;;;;;;;129.80;58.88;;;;;;;8.25;100.00;100831.22;4997028;28;20034;-83
2022/12/30 03:52:53;;;;;;;128.10;58.47;;;;;;;8.41;100.00;100828.88;4997354;28;20034;-82
2022/12/30 03:55:18;;;;;;;133.40;59.08;;;;;;;8.30;100.00;100823.72;4997145;28;20034;-82
2022/12/30 03:57:43;;;;;;;143.30;59.70;;;;;;;8.31;100.00;100825.41;4997054;28;20080;-84
2022/12/30 04:00:10;;;;;;;133.80;60.78;;;;;;;8.33;100.00;100831.38;4996855;28;20030;-81
2022/12/30 04:02:39;;;;;;;138.18;60.83;;;;;;;8.48;100.00;100835.25;5005518;28;20041;-82
2022/12/30 04:05:08;;;;;;;135.50;60.05;;;;;;;8.43;100.00;100829.56;5008584;28;20503;-83
2022/12/30 04:07:34;;;;;;;125.18;58.47;;;;;;;8.48;100.00;100827.34;4998070;28;20038;-82
2022/12/30 04:10:00;;;;;;;134.30;62.45;;;;;;;8.48;100.00;100824.69;4980194;28;20038;-81
2022/12/30 04:12:26;;;;;;;122.63;55.75;;;;;;;8.59;100.00;100827.16;4997560;28;20026;-83
2022/12/30 04:14:51;;;;;;;122.38;55.95;;;;;;;8.64;100.00;100830.22;4997476;28;20108;-83
2022/12/30 04:17:17;;;;;;;123.22;55.33;;;;;;;8.64;100.00;100829.38;4979800;28;20034;-83
2022/12/30 04:19:42;;;;;;;127.10;53.05;;;;;;;8.56;100.00;100827.44;4997551;28;20038;-82
2022/12/30 04:22:08;;;;;;;140.35;54.90;;;;;;;8.63;100.00;100822.44;4997426;28;20065;-81
2022/12/30 04:24:33;;;;;;;117.90;55.22;;;;;;;8.73;100.00;100834.66;4980154;28;20050;-83
2022/12/30 04:26:58;;;;;;;158.82;55.70;;;;;;;8.70;100.00;100834.09;4998215;28;20726;-81
2022/12/30 04:29:24;;;;;;;256.27;56.33;;;;;;;8.37;100.00;100822.19;4998168;28;20042;-82
2022/12/30 04:31:50;;;;;;;208.65;59.80;;;;;;;8.24;100.00;100827.72;4998089;28;20049;-82
2022/12/30 04:34:15;;;;;;;170.10;63.65;;;;;;;8.13;100.00;100835.78;4998043;28;20030;-82
2022/12/30 04:36:42;;;;;;;159.65;64.15;;;;;;;8.39;100.00;100841.38;4979686;28;20054;-82
2022/12/30 04:39:08;;;;;;;195.23;62.00;;;;;;;8.21;100.00;100843.03;4997616;28;20031;-82
2022/12/30 04:41:33;;;;;;;154.90;61.83;;;;;;;8.25;100.00;100839.13;4996671;28;20042;-84
2022/12/30 04:44:01;;;;;;;179.80;64.15;;;;;;;8.19;100.00;100823.81;4996678;28;20048;-83
2022/12/30 04:46:28;;;;;;;184.02;64.07;;;;;;;8.26;100.00;100819.66;4996978;28;20108;-82
2022/12/30 04:48:54;;;;;;;159.60;61.88;;;;;;;8.50;100.00;100812.16;4979626;28;20030;-83
2022/12/30 04:51:20;;;;;;;150.45;59.78;;;;;;;8.64;100.00;100824.09;4996533;28;20037;-85
2022/12/30 04:53:45;;;;;;;148.32;61.75;;;;;;;8.80;100.00;100825.19;4996553;28;20158;-80
2022/12/30 04:56:11;;;;;;;166.68;59.85;;;;;;;8.59;100.00;100819.22;4996112;28;20113;-82
2022/12/30 04:58:36;;;;;;;155.40;57.83;;;;;;;8.71;100.00;100814.63;4995850;28;20035;-83
2022/12/30 05:01:02;;;;;;;164.38;56.92;;;;;;;8.56;100.00;100816.88;4996381;28;20038;-83
2022/12/30 05:03:27;;;;;;;191.52;59.17;;;;;;;8.41;100.00;100820.09;4996155;28;20030;-83
2022/12/30 05:05:52;;;;;;;158.52;57.22;;;;;;;8.48;100.00;100814.13;4996344;28;20038;-83
2022/12/30 05:08:18;;;;;;;384.77;60.83;;;;;;;8.49;100.00;100825.50;4996131;28;20042;-84
2022/12/30 05:10:44;;;;;;;132.82;56.88;;;;;;;8.61;100.00;100827.88;4979053;28;20366;-82
2022/12/30 05:13:09;;;;;;;151.15;56.67;;;;;;;8.58;100.00;100830.78;4978075;28;20509;-82
2022/12/30 05:15:35;;;;;;;133.25;57.13;;;;;;;8.57;100.00;100833.56;4995972;28;20034;-83
2022/12/30 05:18:01;;;;;;;138.68;57.58;;;;;;;8.68;100.00;100836.88;4996238;28;20399;-82
2022/12/30 05:20:26;;;;;;;136.55;58.08;;;;;;;8.61;100.00;100841.06;4996873;28;20482;-80
2022/12/30 05:22:55;;;;;;;129.95;54.67;;;;;;;8.80;100.00;100851.59;4997092;28;20474;-82
2022/12/30 05:28:04;;;;;;;133.93;57.92;;;;;;;8.75;100.00;100843.25;5000527;28;20129;-82
2022/12/30 05:30:30;;;;;;;123.18;54.30;;;;;;;8.57;100.00;100847.63;5005229;28;20039;-81
2022/12/30 05:32:55;;;;;;;132.88;54.65;;;;;;;8.59;100.00;100856.22;5004673;28;20046;-81
2022/12/30 05:35:21;;;;;;;132.48;58.20;;;;;;;8.55;100.00;100861.94;5001022;28;20031;-84
2022/12/30 05:37:47;;;;;;;142.80;56.95;;;;;;;8.57;100.00;100860.81;4995934;28;20053;-83
2022/12/30 05:40:13;;;;;;;132.90;56.75;;;;;;;8.62;100.00;100855.94;4995652;28;20045;-80
2022/12/30 05:42:38;;;;;;;148.85;59.53;;;;;;;8.64;100.00;100859.28;4995788;28;20117;-81
2022/12/30 05:45:05;;;;;;;139.05;56.70;;;;;;;8.72;100.00;100864.69;4996039;28;20041;-83
2022/12/30 05:47:31;;;;;;;146.43;56.40;;;;;;;8.67;100.00;100866.94;4978921;28;20524;-83
2022/12/30 05:49:56;;;;;;;121.45;57.08;;;;;;;8.49;100.00;100868.59;4999789;28;20034;-81
2022/12/30 05:52:22;;;;;;;148.75;57.80;;;;;;;8.49;100.00;100873.03;5008461;28;20030;-82
2022/12/30 05:54:47;;;;;;;181.93;62.42;;;;;;;8.45;100.00;100877.78;5010722;28;20097;-82
2022/12/30 05:57:13;;;;;;;157.65;59.95;;;;;;;8.57;100.00;100886.41;5011266;28;20062;-82
2022/12/30 05:59:38;;;;;;;264.60;64.38;;;;;;;8.57;100.00;100887.25;5010816;28;20044;-81
2022/12/30 06:02:03;;;;;;;189.23;67.18;;;;;;;8.51;100.00;100897.53;5003306;28;20029;-83
2022/12/30 06:04:29;;;;;;;205.80;66.15;;;;;;;8.45;100.00;100898.91;4981462;28;20034;-81
2022/12/30 06:06:55;;;;;;;169.90;65.90;;;;;;;8.60;100.00;100908.09;5001829;28;20046;-82
2022/12/30 06:09:20;;;;;;;176.27;66.13;;;;;;;8.65;100.00;100905.84;4996192;28;20031;-82
2022/12/30 06:11:46;;;;;;;239.50;68.00;;;;;;;8.52;100.00;100900.00;4996645;28;20097;-82
2022/12/30 06:14:14;;;;;;;192.98;64.95;;;;;;;8.62;100.00;100900.84;4996858;28;20026;-81
2022/12/30 06:16:40;;;;;;;219.15;67.25;;;;;;;8.32;100.00;100893.91;4996022;28;20498;-82
2022/12/30 06:19:07;;;;;;;328.23;67.90;;;;;;;8.37;100.00;100882.09;4995789;28;20042;-81
2022/12/30 06:21:33;;;;;;;174.25;65.03;;;;;;;8.52;100.00;100889.44;4977619;28;20035;-82
2022/12/30 06:23:58;;;;;;;186.68;64.03;;;;;;;8.57;100.00;100900.44;4996257;28;20398;-82
2022/12/30 06:26:24;;;;;;;160.63;63.17;;;;;;;8.61;100.00;100904.47;4999490;28;20039;-83
2022/12/30 06:28:49;;;;;;;143.38;61.10;;;;;;;8.83;100.00;100914.75;4999622;28;20454;-85
2022/12/30 06:31:15;;;;;;;177.27;62.50;;;;;;;8.92;100.00;100914.84;4981914;28;20125;-83
2022/12/30 06:33:40;;;;;;;151.88;61.17;;;;;;;8.77;100.00;100914.47;5000565;28;20033;-83
2022/12/30 06:36:06;;;;;;;229.60;64.15;;;;;;;8.62;100.00;100902.66;5006874;28;20111;-81
2022/12/30 06:38:32;;;;;;;160.40;64.00;;;;;;;8.61;100.00;100914.22;5011599;28;20038;-81
2022/12/30 06:40:57;;;;;;;174.60;61.90;;;;;;;8.71;100.00;100930.91;5001073;28;20034;-82
2022/12/30 06:43:23;;;;;;;151.38;60.17;;;;;;;9.01;100.00;100948.41;5003004;28;20050;-82
2022/12/30 06:45:48;;;;;;;152.90;61.85;;;;;;;9.05;100.00;100949.78;4999820;28;20104;-82
2022/12/30 06:48:13;;;;;;;141.45;61.00;;;;;;;8.92;100.00;100943.94;4999444;28;20082;-82
2022/12/30 06:50:39;;;;;;;146.45;60.88;;;;;;;8.72;100.00;100951.88;4999162;28;20034;-82
2022/12/30 06:53:05;;;;;;;124.13;56.17;;;;;;;8.80;100.00;100952.03;4999014;28;20495;-84
2022/12/30 06:55:31;;;;;;;132.70;58.47;;;;;;;8.66;100.00;100955.09;4998901;28;20393;-82
2022/12/30 06:57:57;;;;;;;134.48;57.13;;;;;;;8.69;100.00;100946.88;4998104;28;20125;-83
2022/12/30 07:00:22;;;;;;;145.05;61.17;;;;;;;8.42;100.00;100944.09;4998142;28;20069;-83
2022/12/30 07:02:48;;;;;;;139.27;60.40;;;;;;;8.34;100.00;100943.94;4998615;28;20477;-83
2022/12/30 07:05:14;;;;;;;143.38;62.25;;;;;;;8.35;100.00;100956.19;4998413;28;20076;-83
2022/12/30 07:07:39;;;;;;;136.40;59.90;;;;;;;8.44;100.00;100968.56;4983496;28;20046;-83
2022/12/30 07:10:05;;;;;;;137.52;59.22;;;;;;;8.66;100.00;100976.22;4998269;28;20026;-82
2022/12/30 07:12:31;;;;;;;125.07;58.40;;;;;;;8.74;100.00;100978.19;4998390;28;20035;-85
2022/12/30 07:14:56;;;;;;;130.02;56.65;;;;;;;8.88;100.00;100992.78;5000158;28;20034;-86
2022/12/30 07:17:22;;;;;;;125.63;54.40;;;;;;;8.90;100.00;101002.25;4995847;28;20489;-81
2022/12/30 07:19:47;;;;;;;120.55;53.17;;;;;;;8.88;100.00;101000.72;4996536;28;20053;-82
2022/12/30 07:22:15;;;;;;;135.93;55.67;;;;;;;8.74;100.00;101000.16;4995568;28;20370;-82
2022/12/30 07:24:41;;;;;;;134.48;54.97;;;;;;;8.72;100.00;100991.50;4996482;28;20437;-85
2022/12/30 07:27:11;;;;;;;135.98;53.72;;;;;;;8.70;100.00;100988.19;4997276;28;20038;-83
2022/12/30 07:29:38;;;;;;;129.40;53.03;;;;;;;8.74;100.00;100984.31;4997873;28;20066;-82
2022/12/30 07:32:08;;;;;;;119.13;53.80;;;;;;;8.73;100.00;100985.25;4997266;28;20068;-84
2022/12/30 07:34:37;;;;;;;123.18;53.53;;;;;;;8.77;100.00;100985.81;4996322;28;20490;-86
2022/12/30 07:37:03;;;;;;;117.40;53.10;;;;;;;8.90;100.00;100996.13;4998473;28;20030;-80
2022/12/30 07:39:29;;;;;;;105.05;47.80;;;;;;;8.91;100.00;100993.34;4998584;28;20070;-82
2022/12/30 07:41:55;;;;;;;99.20;46.75;;;;;;;8.88;100.00;101000.72;4998465;28;20041;-82
2022/12/30 07:44:21;;;;;;;103.93;47.40;;;;;;;8.87;100.00;101002.53;4996553;28;20406;-82
2022/12/30 07:46:46;;;;;;;101.90;47.35;;;;;;;8.90;100.00;100999.59;4996226;28;20042;-80
2022/12/30 07:49:12;;;;;;;93.70;46.17;;;;;;;8.97;100.00;101006.00;4996763;28;20102;-84
2022/12/30 07:51:38;;;;;;;105.07;46.40;;;;;;;8.98;100.00;101014.75;4996851;28;20034;-84
2022/12/30 07:54:06;;;;;;;99.60;45.65;;;;;;;8.96;100.00;101014.06;4996581;28;20031;-82
2022/12/30 07:56:32;;;;;;;105.93;49.60;;;;;;;8.93;100.00;101016.97;4996663;28;20042;-81
2022/12/30 07:58:58;;;;;;;111.60;49.40;;;;;;;8.87;100.00;101014.91;4997972;28;20030;-83
2022/12/30 08:01:25;;;;;;;109.60;51.10;;;;;;;8.76;100.00;101014.06;4998561;28;20404;-81
2022/12/30 08:03:55;;;;;;;99.60;47.00;;;;;;;9.10;100.00;101021.56;4997771;28;20038;-82
2022/12/30 08:06:21;;;;;;;107.95;51.40;;;;;;;9.11;100.00;101024.09;4996251;28;20042;-80
2022/12/30 08:08:46;;;;;;;123.00;52.20;;;;;;;9.03;100.00;101016.00;4995736;28;20438;-83
2022/12/30 08:11:13;;;;;;;122.75;53.75;;;;;;;9.01;100.00;101017.97;4996088;28;20038;-82
2022/12/30 08:13:41;;;;;;;130.55;52.47;;;;;;;8.98;100.00;101020.06;4996810;28;20030;-85
2022/12/30 08:16:08;;;;;;;106.40;47.80;;;;;;;9.11;100.00;101018.78;5006170;28;20030;-80
2022/12/30 08:18:34;;;;;;;117.97;51.38;;;;;;;8.98;100.00;101020.06;4998248;28;20034;-83
2022/12/30 08:21:01;;;;;;;133.98;54.75;;;;;;;8.82;100.00;101026.72;4995385;28;20034;-84
2022/12/30 08:23:28;;;;;;;109.88;50.60;;;;;;;8.97;100.00;101026.31;5008396;28;20106;-81
2022/12/30 08:25:54;;;;;;;116.30;50.28;;;;;;;8.96;100.00;101024.63;5011074;28;20061;-80
2022/12/30 08:28:22;;;;;;;107.45;50.83;;;;;;;9.04;100.00;101032.72;5012598;28;20038;-83
2022/12/30 08:30:47;;;;;;;107.82;48.60;;;;;;;9.08;100.00;101042.03;5011971;28;20038;-81
2022/12/30 08:33:13;;;;;;;91.82;45.55;;;;;;;9.11;100.00;101044.41;5012016;28;20046;-84
2022/12/30 08:35:39;;;;;;;91.75;46.22;;;;;;;9.04;100.00;101041.47;5012518;28;20030;-82
2022/12/30 08:38:05;;;;;;;88.75;43.67;;;;;;;8.99;100.00;101056.06;5011563;28;20394;-82
2022/12/30 08:40:31;;;;;;;93.82;44.50;;;;;;;8.98;100.00;101051.78;5001168;28;20040;-82
2022/12/30 08:42:59;;;;;;;88.78;45.58;;;;;;;8.81;100.00;101059.41;4997756;28;20030;-85
2022/12/30 08:45:25;;;;;;;87.88;44.50;;;;;;;9.06;100.00;101059.81;4997102;28;20034;-84
2022/12/30 08:47:51;;;;;;;90.25;46.33;;;;;;;9.07;100.00;101056.22;4995690;28;20057;-80
2022/12/30 08:50:16;;;;;;;95.82;48.88;;;;;;;8.91;100.00;101058.59;4996609;28;20034;-82
2022/12/30 08:52:43;;;;;;;89.13;45.60;;;;;;;8.79;100.00;101068.44;4995959;28;20061;-83
2022/12/30 08:55:08;;;;;;;93.57;46.42;;;;;;;8.81;100.00;101072.63;4995766;28;20504;-83
2022/12/30 08:57:37;;;;;;;94.25;46.50;;;;;;;8.68;100.00;101073.88;4995919;28;20119;-85
2022/12/30 09:00:07;;;;;;;66.82;34.30;;;;;;;8.89;100.00;101081.66;4996564;28;20066;-83
2022/12/30 09:02:33;;;;;;;91.93;45.38;;;;;;;8.82;100.00;101084.84;4998057;28;20035;-83
2022/12/30 09:04:59;;;;;;;87.22;44.13;;;;;;;9.00;100.00;101094.75;4997580;28;20181;-81
2022/12/30 09:07:25;;;;;;;86.60;44.50;;;;;;;8.94;100.00;101093.50;4997263;28;20070;-81
2022/12/30 09:09:50;;;;;;;90.60;46.38;;;;;;;9.01;100.00;101096.44;4999085;28;20192;-82
2022/12/30 09:12:16;;;;;;;93.22;45.70;;;;;;;8.89;100.00;101106.28;4995976;28;20035;-84
2022/12/30 09:14:41;;;;;;;89.40;45.30;;;;;;;8.95;100.00;101107.56;4995286;28;20192;-82
2022/12/30 09:17:07;;;;;;;84.90;44.80;;;;;;;8.96;100.00;101112.69;4994947;28;20042;-82
2022/12/30 09:19:32;;;;;;;89.45;45.42;;;;;;;8.95;100.00;101112.84;4994905;28;20057;-81
2022/12/30 09:21:58;;;;;;;89.55;44.90;;;;;;;8.87;100.00;101115.34;4995364;28;20063;-83
2022/12/30 09:24:23;;;;;;;86.00;43.47;;;;;;;9.07;100.00;101111.75;4995166;28;20027;-83
2022/12/30 09:26:49;;;;;;;86.75;43.15;;;;;;;9.18;100.00;101116.91;4995452;28;20034;-83
2022/12/30 09:29:17;;;;;;;86.95;44.33;;;;;;;9.13;100.00;101106.75;4996798;28;20042;-83
2022/12/30 09:31:43;;;;;;;83.95;42.67;;;;;;;9.10;100.00;101116.75;4995957;28;20034;-85
2022/12/30 09:34:08;;;;;;;91.95;44.58;;;;;;;8.95;100.00;101118.16;4995994;28;20093;-85
2022/12/30 09:36:34;;;;;;;87.22;43.30;;;;;;;8.94;100.00;101113.81;4995599;28;20038;-84
2022/12/30 09:38:59;;;;;;;90.60;44.60;;;;;;;8.99;100.00;101109.78;4995273;28;20125;-84
2022/12/30 09:44:33;;;;;;;93.03;45.85;;;;;;;8.96;100.00;101107.41;4994922;28;20449;-83
2022/12/30 09:47:21;;;;;;;93.60;46.38;;;;;;;9.02;100.00;101108.66;4996005;28;20073;-84
2022/12/30 09:50:20;;;;;;;96.60;45.45;;;;;;;8.96;100.00;101102.13;4993576;28;20038;-82
2022/12/30 09:52:57;;;;;;;95.78;47.15;;;;;;;9.13;100.00;101111.19;4977297;28;20092;-84
2022/12/30 09:55:27;;;;;;;87.32;43.92;;;;;;;9.24;100.00;101108.41;4994794;28;20401;-85
2022/12/30 09:57:58;;;;;;;83.32;42.42;;;;;;;9.03;100.00;101116.47;4995507;28;20070;-85
2022/12/30 10:00:26;;;;;;;85.00;43.17;;;;;;;9.01;100.00;101115.78;4999773;28;20038;-84
2022/12/30 10:03:05;;;;;;;82.55;43.17;;;;;;;9.08;100.00;101113.44;4983744;28;20117;-83
2022/12/30 10:05:55;;;;;;;78.63;41.80;;;;;;;9.11;100.00;101113.16;5001301;28;20046;-85
2022/12/30 10:08:26;;;;;;;79.55;40.97;;;;;;;9.16;100.00;101108.25;5000279;28;20050;-82
2022/12/30 10:11:08;;;;;;;77.60;41.58;;;;;;;9.14;100.00;101097.00;4998646;28;20038;-84
2022/12/30 10:13:48;;;;;;;82.57;42.10;;;;;;;9.19;100.00;101105.34;5000217;28;20035;-82
2022/12/30 10:16:33;;;;;;;67.68;36.78;;;;;;;9.32;100.00;101106.75;4998656;28;20045;-86
2022/12/30 10:19:21;;;;;;;71.95;39.22;;;;;;;9.42;100.00;101106.72;4999154;28;20117;-82
2022/12/30 10:22:10;;;;;;;72.38;39.20;;;;;;;9.24;100.00;101105.78;4999043;28;20042;-84
2022/12/30 10:25:04;;;;;;;72.25;39.22;;;;;;;9.08;100.00;101111.59;4998844;28;20045;-84
2022/12/30 10:27:56;;;;;;;74.45;40.22;;;;;;;9.06;100.00;101104.78;4997485;28;20061;-84
2022/12/30 10:30:29;;;;;;;75.13;39.30;;;;;;;9.10;100.00;101106.19;4995992;28;20050;-84
2022/12/30 10:32:59;;;;;;;77.75;40.03;;;;;;;9.02;100.00;101106.03;4998140;28;20042;-83
2022/12/30 10:35:29;;;;;;;77.88;39.78;;;;;;;9.01;100.00;101091.16;5001849;28;20057;-82
2022/12/30 10:38:25;;;;;;;72.55;38.08;;;;;;;9.08;100.00;101094.91;5000382;28;20046;-85
2022/12/30 10:41:35;;;;;;;76.75;38.83;;;;;;;9.06;100.00;101096.84;4997910;28;20125;-87
2022/12/30 10:44:09;;;;;;;76.28;40.70;;;;;;;9.18;100.00;101082.53;4989667;28;20108;-85
2022/12/30 10:47:12;;;;;;;78.43;40.85;;;;;;;9.05;100.00;101082.78;5008612;28;20050;-86
2022/12/30 10:49:59;;;;;;;78.57;38.97;;;;;;;9.14;100.00;101086.44;4986256;28;20038;-86
2022/12/30 10:52:25;;;;;;;84.22;42.28;;;;;;;9.09;100.00;101088.63;5006799;28;20037;-84
2022/12/30 10:54:50;;;;;;;83.03;41.72;;;;;;;9.03;100.00;101086.56;4989071;28;20065;-85
2022/12/30 10:57:19;;;;;;;77.45;39.90;;;;;;;9.08;100.00;101094.91;5009490;28;20038;-83
2022/12/30 10:59:47;;;;;;;75.38;40.50;;;;;;;9.26;100.00;101086.13;5006612;28;20405;-85
2022/12/30 11:02:31;;;;;;;73.75;39.78;;;;;;;9.28;100.00;101085.97;5004581;28;20050;-87
2022/12/30 11:04:59;;;;;;;71.68;38.22;;;;;;;9.38;100.00;101078.06;4967492;28;20050;-86
2022/12/30 11:07:24;;;;;;;68.20;36.85;;;;;;;9.22;100.00;101091.84;5004391;28;20088;-83
2022/12/30 11:09:50;;;;;;;71.15;37.03;;;;;;;9.18;100.00;101098.41;5005153;28;20050;-85
2022/12/30 11:15:20;;;;;;;73.40;36.75;;;;;;;9.37;100.00;101092.25;5012328;28;20042;-84
2022/12/30 11:17:56;;;;;;;69.80;37.22;;;;;;;9.27;100.00;101093.09;5011926;28;20030;-84
2022/12/30 11:20:39;;;;;;;74.30;36.65;;;;;;;9.27;100.00;101089.63;5007488;28;20049;-86
2022/12/30 11:23:26;;;;;;;68.80;36.63;;;;;;;9.28;100.00;101093.91;5001522;28;20438;-85
2022/12/30 11:25:52;;;;;;;69.78;37.83;;;;;;;9.34;100.00;101088.09;5000972;28;20129;-85
2022/12/30 11:28:32;;;;;;;73.10;37.38;;;;;;;9.26;100.00;101080.00;5002582;28;20109;-85
2022/12/30 11:31:08;;;;;;;71.90;37.30;;;;;;;9.34;100.00;101088.09;5002871;28;20045;-85
2022/12/30 11:33:37;;;;;;;69.57;37.42;;;;;;;9.32;100.00;101090.03;5008708;28;20039;-84
2022/12/30 11:36:27;;;;;;;69.35;36.47;;;;;;;9.29;100.00;101079.72;5011748;28;20042;-83
2022/12/30 11:38:57;;;;;;;74.35;38.95;;;;;;;9.30;100.00;101076.13;5012667;28;20502;-85
2022/12/30 11:41:28;;;;;;;74.70;38.65;;;;;;;9.30;100.00;101065.53;5012435;28;20034;-82
2022/12/30 11:44:00;;;;;;;66.47;35.22;;;;;;;9.27;100.00;101071.09;4999958;28;20065;-85
2022/12/30 11:46:32;;;;;;;68.05;35.08;;;;;;;9.43;100.00;101078.47;5001822;28;20050;-85
2022/12/30 11:49:02;;;;;;;67.30;34.45;;;;;;;9.47;100.00;101067.47;5003160;28;20711;-83
2022/12/30 11:51:32;;;;;;;68.20;34.85;;;;;;;9.41;100.00;101073.34;5003294;28;20034;-85
2022/12/30 11:54:16;;;;;;;62.80;33.47;;;;;;;9.34;100.00;101059.00;5000880;28;20062;-82
2022/12/30 11:57:16;;;;;;;63.85;32.75;;;;;;;9.60;100.00;101051.28;5008435;28;20054;-84
2022/12/30 11:59:54;;;;;;;62.38;32.17;;;;;;;9.46;100.00;101044.63;4969168;28;20104;-86
2022/12/30 12:02:20;;;;;;;65.30;33.75;;;;;;;9.39;100.00;101051.47;5006085;28;20041;-85
2022/12/30 12:04:51;;;;;;;64.72;34.75;;;;;;;9.32;100.00;101047.69;5000228;28;20452;-85
2022/12/30 12:07:21;;;;;;;71.88;36.42;;;;;;;9.35;100.00;101052.72;5000467;28;20050;-85
2022/12/30 12:10:01;;;;;;;67.53;35.28;;;;;;;9.33;100.00;101052.03;4999941;28;20077;-84
2022/12/30 12:12:33;;;;;;;64.93;34.10;;;;;;;9.29;100.00;101048.00;4982424;28;20042;-83
2022/12/30 12:15:19;;;;;;;57.53;31.30;;;;;;;9.23;100.00;101037.97;5002606;28;20405;-84